createdAt,value
2023-02-22T09:01:27.972Z,11.33
2023-02-22T09:04:36.602Z,12.98
2023-02-22T09:07:43.075Z,9.23
2023-02-22T09:10:47.350Z,9.35
2023-02-22T09:13:50.584Z,6.00
2023-02-22T09:16:54.140Z,8.30
2023-02-22T09:19:57.652Z,9.07
2023-02-22T09:23:03.366Z,10.77
2023-02-22T09:26:09.407Z,10.57
2023-02-22T09:29:13.559Z,9.52
2023-02-22T09:32:18.775Z,9.77
2023-02-22T09:35:27.742Z,8.57
2023-02-22T09:38:33.229Z,9.50
2023-02-22T09:41:48.302Z,6.88
2023-02-22T09:44:56.269Z,5.28
2023-02-22T09:48:15.239Z,5.33
2023-02-22T09:51:28.392Z,6.25
2023-02-22T09:54:43.919Z,6.30
2023-02-22T09:57:48.442Z,5.43
2023-02-22T10:01:14.885Z,5.97
2023-02-22T10:04:25.308Z,5.70
2023-02-22T10:07:44.302Z,6.95
2023-02-22T10:10:56.636Z,5.25
2023-02-22T10:14:25.456Z,5.55
2023-02-22T10:17:49.467Z,5.22
2023-02-22T10:21:03.898Z,6.47
2023-02-22T10:24:24.110Z,5.47
2023-02-22T10:27:38.664Z,6.18
2023-02-22T10:31:06.585Z,4.47
2023-02-22T10:34:27.696Z,6.55
2023-02-22T10:37:34.967Z,6.40
2023-02-22T10:40:40.316Z,10.82
2023-02-22T10:43:45.148Z,9.95
2023-02-22T10:46:48.670Z,11.50
2023-02-22T10:49:57.174Z,20.33
2023-02-22T10:53:01.539Z,17.93
2023-02-22T10:56:21.262Z,20.20
2023-02-22T10:59:40.994Z,23.67
2023-02-22T11:02:57.008Z,17.77
2023-02-22T11:06:21.080Z,15.48
2023-02-22T11:09:24.848Z,10.87
2023-02-22T11:12:38.535Z,18.33
2023-02-22T11:15:41.722Z,23.67
2023-02-22T11:18:45.773Z,38.75
2023-02-22T11:21:54.883Z,48.90
2023-02-22T11:25:03.890Z,29.90
2023-02-22T11:28:15.868Z,23.38
2023-02-22T11:31:30.965Z,19.10
2023-02-22T11:34:41.518Z,15.00
2023-02-22T11:37:44.891Z,10.48
2023-02-22T11:41:06.147Z,9.17
2023-02-22T11:44:32.709Z,6.88
2023-02-22T11:48:01.800Z,6.47
2023-02-22T11:51:05.398Z,7.25
2023-02-22T11:54:23.498Z,13.70
2023-02-22T11:57:38.443Z,41.00
2023-02-22T12:00:44.994Z,42.00
2023-02-22T12:04:24.799Z,37.40
2023-02-22T12:08:01.413Z,37.10
2023-02-22T12:11:36.444Z,29.63
2023-02-22T12:14:55.370Z,28.60
2023-02-22T12:18:30.369Z,29.75
2023-02-22T12:21:38.484Z,29.67
2023-02-22T12:24:48.042Z,24.17
2023-02-22T12:28:25.489Z,20.92
2023-02-22T12:31:48.562Z,21.63
2023-02-22T12:34:57.273Z,21.88
2023-02-22T12:38:23.626Z,18.63
2023-02-22T12:41:35.144Z,19.60
2023-02-22T12:44:41.930Z,22.83
2023-02-22T12:48:01.871Z,22.33
2023-02-22T12:51:32.860Z,24.48
2023-02-22T12:54:51.473Z,25.38
2023-02-22T12:58:31.285Z,25.50
2023-02-22T13:01:41.872Z,24.38
2023-02-22T13:04:45.695Z,23.50
2023-02-22T13:08:22.545Z,23.23
2023-02-22T13:11:48.277Z,21.75
2023-02-22T13:15:15.076Z,21.38
2023-02-22T13:18:59.957Z,24.08
2023-02-22T13:22:41.961Z,35.10
2023-02-22T13:25:58.666Z,28.67
2023-02-22T13:29:16.679Z,25.92
2023-02-22T13:32:34.828Z,26.40
2023-02-22T13:36:02.085Z,26.13
2023-02-22T13:39:56.149Z,27.20
2023-02-22T13:43:13.422Z,22.67
2023-02-22T13:46:48.555Z,33.10
2023-02-22T13:50:18.635Z,41.25
2023-02-22T13:53:28.194Z,36.50
2023-02-22T13:56:32.459Z,33.00
2023-02-22T13:59:40.283Z,34.00
2023-02-22T14:03:08.646Z,28.95
2023-02-22T14:06:38.366Z,28.23
2023-02-22T14:09:47.166Z,22.45
2023-02-22T14:12:51.623Z,22.40
2023-02-22T14:16:01.792Z,21.83
2023-02-22T14:19:14.210Z,19.77
2023-02-22T14:22:28.384Z,18.83
2023-02-22T14:25:37.274Z,19.23
2023-02-22T14:28:46.771Z,17.97
2023-02-22T14:31:53.147Z,18.30
2023-02-22T14:35:01.224Z,16.67
2023-02-22T14:38:07.829Z,15.20
2023-02-22T14:41:15.409Z,17.38
2023-02-22T14:44:25.994Z,21.80
2023-02-22T14:47:40.444Z,25.95
2023-02-22T14:51:11.806Z,27.83
2023-02-22T14:55:00.322Z,25.52
2023-02-22T14:58:19.552Z,23.92
2023-02-22T15:01:34.010Z,23.77
2023-02-22T15:04:44.732Z,23.02
2023-02-22T15:07:56.961Z,24.23
2023-02-22T15:11:03.437Z,23.55
2023-02-22T15:14:26.816Z,27.63
2023-02-22T15:17:31.093Z,24.17
2023-02-22T15:20:37.283Z,27.63
2023-02-22T15:23:50.423Z,25.80
2023-02-22T15:27:01.950Z,31.27
2023-02-22T15:30:10.355Z,27.67
2023-02-22T15:33:24.742Z,27.60
2023-02-22T15:36:31.653Z,28.08
2023-02-22T15:39:35.146Z,28.88
2023-02-22T15:42:49.630Z,29.60
2023-02-22T15:45:53.661Z,29.90
2023-02-22T15:49:20.137Z,27.77
2023-02-22T15:52:26.840Z,23.65
2023-02-22T15:55:42.409Z,24.60
2023-02-22T15:58:48.194Z,25.52
2023-02-22T16:01:54.037Z,26.45
2023-02-22T16:05:09.311Z,22.30
2023-02-22T16:08:20.936Z,22.17
2023-02-22T16:11:32.278Z,23.25
2023-02-22T16:14:36.450Z,26.42
2023-02-22T16:17:55.988Z,23.50
2023-02-22T16:21:13.415Z,29.40
2023-02-22T16:24:27.925Z,28.15
2023-02-22T16:27:31.023Z,27.75
2023-02-22T16:30:35.864Z,27.95
2023-02-22T16:33:42.720Z,27.83
2023-02-22T16:36:52.071Z,27.10
2023-02-22T16:39:56.283Z,27.15
2023-02-22T16:43:04.742Z,26.90
2023-02-22T16:46:08.467Z,29.60
2023-02-22T16:49:13.440Z,29.73
2023-02-22T16:52:16.737Z,29.77
2023-02-22T16:55:21.210Z,35.05
2023-02-22T16:58:28.831Z,32.83
2023-02-22T17:01:35.383Z,34.67
2023-02-22T17:04:38.652Z,35.03
2023-02-22T17:07:43.040Z,33.37
2023-02-22T17:10:47.181Z,31.05
2023-02-22T17:13:52.318Z,28.70
2023-02-22T17:16:55.242Z,29.60
2023-02-22T17:19:58.512Z,26.00
2023-02-22T17:23:10.704Z,26.00
2023-02-22T17:26:16.242Z,15.65
2023-02-22T17:29:19.638Z,10.18
2023-02-22T17:32:22.623Z,7.75
2023-02-22T17:35:27.784Z,8.25
2023-02-22T17:38:32.186Z,6.60
2023-02-22T17:41:35.749Z,5.80
2023-02-22T17:44:38.869Z,4.07
2023-02-22T17:47:44.167Z,8.25
2023-02-22T17:50:49.919Z,9.70
2023-02-22T17:53:53.855Z,6.13
2023-02-22T17:56:58.444Z,9.55
2023-02-22T18:00:03.070Z,15.80
2023-02-22T18:03:21.980Z,23.13
2023-02-22T18:06:27.949Z,16.38
2023-02-22T18:09:31.074Z,9.27
2023-02-22T18:12:34.536Z,11.93
2023-02-22T18:15:40.836Z,11.55
2023-02-22T18:18:45.170Z,3.33
2023-02-22T18:21:48.998Z,3.85
2023-02-22T18:24:58.429Z,4.13
2023-02-22T18:28:08.851Z,5.97
2023-02-22T18:31:15.163Z,7.70
2023-02-22T18:34:18.390Z,14.05
2023-02-22T18:37:21.663Z,17.63
2023-02-22T18:40:25.483Z,20.30
2023-02-22T18:43:29.516Z,22.50
2023-02-22T18:46:32.979Z,20.50
2023-02-22T18:49:35.926Z,20.17
2023-02-22T18:52:45.336Z,19.10
2023-02-22T18:55:48.343Z,14.80
2023-02-22T18:58:55.550Z,9.20
2023-02-22T19:01:58.984Z,6.53
2023-02-22T19:05:03.302Z,6.22
2023-02-22T19:08:12.072Z,6.60
2023-02-22T19:11:22.225Z,5.88
2023-02-22T19:14:26.145Z,6.13
2023-02-22T19:17:31.728Z,4.68
2023-02-22T19:20:36.296Z,5.97
2023-02-22T19:23:46.186Z,8.40
2023-02-22T19:26:58.036Z,11.02
2023-02-22T19:30:05.186Z,9.07
2023-02-22T19:33:10.187Z,6.88
2023-02-22T19:36:16.789Z,5.85
2023-02-22T19:42:30.522Z,3.22
2023-02-22T19:45:34.016Z,2.85
2023-02-22T19:48:37.377Z,2.75
2023-02-22T19:51:41.473Z,5.72
2023-02-22T19:54:45.086Z,6.03
2023-02-22T19:57:50.539Z,4.43
2023-02-22T20:00:53.628Z,2.58
2023-02-22T20:04:11.279Z,3.83
2023-02-22T20:07:14.378Z,3.42
2023-02-22T20:10:19.629Z,3.10
2023-02-22T20:13:22.866Z,3.50
2023-02-22T20:16:25.969Z,3.28
2023-02-22T20:19:29.188Z,3.00
2023-02-22T20:22:32.547Z,2.80
2023-02-22T20:25:36.365Z,2.23
2023-02-22T20:28:42.090Z,2.38
2023-02-22T20:31:50.080Z,2.70
2023-02-22T20:34:53.366Z,1.90
2023-02-22T20:37:57.055Z,2.67
2023-02-22T20:41:01.378Z,3.23
2023-02-22T20:44:07.486Z,2.33
2023-02-22T20:47:11.802Z,2.85
2023-02-22T20:50:15.394Z,2.70
2023-02-22T20:53:19.095Z,3.20
2023-02-22T20:56:24.226Z,3.83
2023-02-22T20:59:29.878Z,3.15
2023-02-22T21:02:33.513Z,3.85
2023-02-22T21:05:45.012Z,2.58
2023-02-22T21:08:55.555Z,1.85
2023-02-22T21:11:59.625Z,3.23
2023-02-22T21:15:03.103Z,3.50
2023-02-22T21:18:07.262Z,3.33
2023-02-22T21:21:10.961Z,3.75
2023-02-22T21:24:15.022Z,3.47
2023-02-22T21:27:19.032Z,2.60
2023-02-22T21:30:22.174Z,2.63
2023-02-22T21:33:25.033Z,2.50
2023-02-22T21:36:29.663Z,2.50
2023-02-22T21:39:33.684Z,1.98
2023-02-22T21:42:36.883Z,2.33
2023-02-22T21:45:40.875Z,2.25
2023-02-22T21:48:49.401Z,2.05
2023-02-22T21:51:53.152Z,2.83
2023-02-22T21:54:56.537Z,4.03
2023-02-22T21:58:00.548Z,4.23
2023-02-22T22:01:08.242Z,4.70
2023-02-22T22:04:14.178Z,3.97
2023-02-22T22:07:19.221Z,3.75
2023-02-22T22:10:27.670Z,3.47
2023-02-22T22:13:30.632Z,2.83
2023-02-22T22:16:33.835Z,2.88
2023-02-22T22:19:45.299Z,3.92
2023-02-22T22:22:48.440Z,6.30
2023-02-22T22:25:52.149Z,4.78
2023-02-22T22:28:58.634Z,5.22
2023-02-22T22:32:04.058Z,1.98
2023-02-22T22:35:15.054Z,1.92
2023-02-22T22:38:19.160Z,2.07
2023-02-22T22:41:22.558Z,1.58
2023-02-22T22:44:30.713Z,1.20
2023-02-22T22:47:33.605Z,1.50
2023-02-22T22:50:38.538Z,1.80
2023-02-22T22:53:43.978Z,2.05
2023-02-22T22:56:47.111Z,1.85
2023-02-22T22:59:50.562Z,3.38
2023-02-22T23:02:57.835Z,3.35
2023-02-22T23:06:05.419Z,4.32
2023-02-22T23:09:14.146Z,4.97
2023-02-22T23:12:18.223Z,4.72
2023-02-22T23:15:22.025Z,5.67
2023-02-22T23:18:24.976Z,5.82
2023-02-22T23:21:28.445Z,6.03
2023-02-22T23:24:32.551Z,5.55
2023-02-22T23:27:36.235Z,5.63
2023-02-22T23:30:39.170Z,6.50
2023-02-22T23:33:45.133Z,5.18
2023-02-22T23:36:49.564Z,4.55
2023-02-22T23:39:53.165Z,4.80
2023-02-22T23:42:57.108Z,4.27
2023-02-22T23:46:11.569Z,5.57
2023-02-22T23:49:17.983Z,5.38
2023-02-22T23:52:24.623Z,4.85
2023-02-22T23:55:32.005Z,5.90
2023-02-22T23:58:35.624Z,5.53
